Weather forecast for Superfinal : Mexico - Valle de Bravo

Paragliding World Cup, 1823 m
N19.195, E-100.133


Sounding

Red line — air temperature ˚C.
Blue line — thermal bubble temperature ˚C.
Green line — dew point temperature ˚C.
Wind speed is in meters per second.

Table forecast

GFS 0.25˚ model

temp. wind gust humid. clouds prec. press. hpbl
Mon14 00:00 15 57.0 ene 2 3 91 99 6.2 1017 109
03:00 15 57.0 ene 2 2 86 78 0.3 1015 50
06:00 14 54.0 ne 2 2 86 100 0.3 1016 34
09:00 19 223.0 sw 1 1 67 74 0.0 1015 612
12:00 21 229.0 sw 3 2 65 55 0.9 1014 1049
15:00 20 241.0 wsw 2 2 72 85 3.1 1012 808
18:00 16 78.0 ene 0 1 94 100 14.5 1011 88
21:00 16 3.0 n 1 1 97 100 25.4 1015 62
 
Tue15 00:00 16 106.0 ese 1 1 90 100 26.5 1016 43
03:00 15 66.0 ene 1 1 92 100 0.7 1015 21
06:00 14 49.0 ne 1 1 91 38 0.8 1016 22
09:00 19 249.0 wsw 1 2 70 98 0.0 1015 679
12:00 21 235.0 sw 3 2 71 100 0.8 1013 873
15:00 19 235.0 sw 2 2 84 100 3.5 1013 356
18:00 18 254.0 wsw 1 2 86 97 4.9 1012 292
21:00 15 49.0 ne 4 5 83 84 1.1 1015 89
 
Wed16 00:00 14 50.0 ne 4 6 81 71 1.2 1017 121
03:00 13 51.0 ne 4 5 80 91 0.0 1015 103
06:00 12 51.0 ne 4 5 77 90 0.0 1016 95
09:00 20 57.0 ene 2 3 41 29 0.0 1014 707
12:00 24 235.0 sw 3 4 36 93 0.0 1012 1584
15:00 24 243.0 wsw 3 2 43 80 0.0 1010 1384
18:00 22 242.0 wsw 2 3 52 100 0.0 1010 850
21:00 18 45.0 ne 2 3 64 60 0.1 1013 52
 
Thu17 00:00 15 49.0 ne 3 5 74 72 0.3 1015 89
03:00 14 53.0 ne 4 5 74 95 0.0 1014 101
06:00 13 52.0 ne 4 5 74 100 0.0 1015 92
09:00 20 71.0 ene 0 1 50 100 0.0 1014 623
12:00 23 235.0 sw 4 4 44 100 0.0 1011 1693
15:00 23 238.0 wsw 3 3 54 100 0.8 1010 1237
18:00 20 254.0 wsw 1 2 66 100 3.3 1010 512
21:00 16 58.0 ene 2 2 84 100 3.3 1013 18
 
Fri18 00:00 15 15.0 nne 2 2 87 100 5.1 1015 30
03:00 15 51.0 ne 2 2 88 100 1.6 1014 38
06:00 15 43.0 ne 2 2 87 100 2.3 1014 32
09:00 18 215.0 sw 0 1 74 100 0.0 1014 293
12:00 17 225.0 sw 2 2 83 100 0.4 1014 279
15:00 19 206.0 ssw 2 2 72 100 1.1 1012 674
18:00 16 80.0 e 2 2 88 100 3.1 1013 73
21:00 16 5.0 n 1 1 88 96 0.3 1015 11
 

0.013 s